Time;durP1;ratioP1;P1;durP2;ratioP2;P2;SDS_P1;SDS_P2;PMS_P1;PMS_P2;Temp;Humidity;BMP_temperature;BMP_pressure;BME280_temperature;BME280_humidity;BME280_pressure;Samples;Min_cycle;Max_cycle;Signal;HPM_P1;HPM_P2
2022/03/02 00:00:22;;;;;;;19.45;11.43;;;;;;;-3.04;100.00;91107.69;5013096;28;20044;-69
2022/03/02 00:02:48;;;;;;;17.70;10.73;;;;;;;-3.02;100.00;91110.09;5013337;28;20042;-69
2022/03/02 00:05:14;;;;;;;20.25;11.43;;;;;;;-3.01;100.00;91112.47;5013052;28;20040;-69
2022/03/02 00:07:41;;;;;;;20.48;11.68;;;;;;;-3.03;100.00;91114.50;5012810;28;20041;-69
2022/03/02 00:10:06;;;;;;;21.83;11.75;;;;;;;-3.05;100.00;91111.31;5012968;28;20037;-69
2022/03/02 00:12:32;;;;;;;26.02;13.95;;;;;;;-3.05;100.00;91100.13;5012873;28;20423;-69
2022/03/02 00:14:58;;;;;;;26.02;13.88;;;;;;;-3.02;100.00;91104.88;5012814;28;20112;-69
2022/03/02 00:17:23;;;;;;;24.67;13.25;;;;;;;-2.91;100.00;91078.09;5012801;28;20130;-69
2022/03/02 00:19:48;;;;;;;25.40;13.10;;;;;;;-2.67;100.00;91096.34;5012725;28;20463;-69
2022/03/02 00:22:14;;;;;;;25.70;13.68;;;;;;;-2.73;100.00;91095.44;5012352;28;20045;-69
2022/03/02 00:24:40;;;;;;;24.88;12.80;;;;;;;-2.89;100.00;91083.84;5012472;28;20038;-69
2022/03/02 00:27:05;;;;;;;21.13;12.52;;;;;;;-2.94;100.00;91091.56;5012605;28;20041;-69
2022/03/02 00:29:31;;;;;;;25.38;13.48;;;;;;;-2.98;100.00;91090.44;5012466;28;20123;-69
2022/03/02 00:31:56;;;;;;;20.23;11.70;;;;;;;-2.90;100.00;91087.47;5012366;28;20175;-69
2022/03/02 00:34:22;;;;;;;23.23;12.48;;;;;;;-2.88;100.00;91082.84;5012461;28;20037;-69
2022/03/02 00:36:47;;;;;;;23.20;13.32;;;;;;;-2.89;100.00;91078.66;5012474;28;20216;-69
2022/03/02 00:39:13;;;;;;;23.33;13.63;;;;;;;-2.88;100.00;91077.63;5012273;28;20114;-69
2022/03/02 00:41:39;;;;;;;26.65;14.13;;;;;;;-3.01;100.00;91075.22;5012319;28;20042;-69
2022/03/02 00:44:04;;;;;;;24.20;14.18;;;;;;;-3.13;100.00;91069.25;5012278;28;20044;-69
2022/03/02 00:46:31;;;;;;;25.65;14.88;;;;;;;-3.09;100.00;91078.97;5012231;28;20531;-69
2022/03/02 00:49:01;;;;;;;29.05;16.85;;;;;;;-3.15;100.00;91071.28;5012139;28;20163;-69
2022/03/02 00:51:27;;;;;;;30.77;16.88;;;;;;;-3.18;100.00;91062.09;5012174;28;20048;-69
2022/03/02 00:53:53;;;;;;;34.08;18.88;;;;;;;-3.18;100.00;91056.88;5012144;28;20045;-69
2022/03/02 00:56:20;;;;;;;30.00;16.77;;;;;;;-3.16;100.00;91054.84;5012084;28;20041;-69
2022/03/02 00:58:45;;;;;;;34.20;19.45;;;;;;;-3.13;100.00;91051.03;5011370;28;20034;-69
2022/03/02 01:01:11;;;;;;;33.25;18.98;;;;;;;-3.11;100.00;91043.78;5011782;28;20627;-69
2022/03/02 01:03:36;;;;;;;31.63;17.20;;;;;;;-3.08;100.00;91046.72;5011597;28;20044;-70
2022/03/02 01:06:03;;;;;;;32.40;19.17;;;;;;;-3.04;100.00;91041.84;5011913;28;20048;-70
2022/03/02 01:08:29;;;;;;;31.50;17.45;;;;;;;-2.96;100.00;91035.53;5011545;28;20040;-69
2022/03/02 01:10:55;;;;;;;27.35;16.27;;;;;;;-3.02;100.00;91032.00;5011678;28;20042;-69
2022/03/02 01:13:21;;;;;;;26.17;14.90;;;;;;;-3.15;100.00;91038.25;5011595;28;20423;-69
2022/03/02 01:15:46;;;;;;;26.63;15.35;;;;;;;-3.36;100.00;91034.34;5011332;28;20037;-69
2022/03/02 01:18:12;;;;;;;25.92;15.52;;;;;;;-3.50;100.00;91024.34;5011243;28;20033;-69
2022/03/02 01:20:37;;;;;;;24.95;14.05;;;;;;;-3.51;100.00;91030.56;5011734;28;20045;-69
2022/03/02 01:23:03;;;;;;;23.80;14.20;;;;;;;-3.61;100.00;91028.50;5011485;28;20458;-69
2022/03/02 01:25:28;;;;;;;24.75;14.35;;;;;;;-3.73;100.00;91014.69;5011308;28;20022;-69
2022/03/02 01:27:54;;;;;;;26.65;15.00;;;;;;;-3.68;100.00;91009.59;5011358;28;20428;-69
2022/03/02 01:30:20;;;;;;;26.58;14.93;;;;;;;-3.60;100.00;91016.31;5011109;28;20508;-69
2022/03/02 01:32:46;;;;;;;21.55;12.88;;;;;;;-3.68;100.00;91007.78;5011375;28;20480;-69
2022/03/02 01:35:12;;;;;;;22.15;13.88;;;;;;;-3.80;100.00;91006.94;5010529;28;20069;-69
2022/03/02 01:37:37;;;;;;;21.02;12.63;;;;;;;-3.86;100.00;91007.06;5011167;28;20102;-69
2022/03/02 01:40:04;;;;;;;26.27;13.63;;;;;;;-3.87;100.00;91008.84;5011125;28;20109;-69
2022/03/02 01:42:30;;;;;;;26.02;15.00;;;;;;;-3.87;100.00;90995.06;4993584;28;20026;-69
2022/03/02 01:44:55;;;;;;;26.48;14.20;;;;;;;-3.80;100.00;91001.75;5010904;28;20049;-69
2022/03/02 01:47:20;;;;;;;25.30;13.63;;;;;;;-3.74;100.00;91003.50;5011076;28;20083;-70
2022/03/02 01:49:46;;;;;;;24.55;14.45;;;;;;;-3.71;100.00;91002.25;5011131;28;20029;-69
2022/03/02 01:52:11;;;;;;;27.08;15.30;;;;;;;-3.70;100.00;91001.22;5011077;28;20030;-69
2022/03/02 01:54:37;;;;;;;25.33;14.90;;;;;;;-3.66;100.00;90999.78;5010924;28;20066;-69
2022/03/02 01:57:03;;;;;;;29.60;15.80;;;;;;;-3.65;100.00;90996.94;5011175;28;20106;-69
2022/03/02 01:59:29;;;;;;;31.73;17.15;;;;;;;-3.57;100.00;90993.25;5011076;28;20037;-69
2022/03/02 02:01:55;;;;;;;30.52;16.70;;;;;;;-3.54;100.00;90998.00;5011190;28;20038;-69
2022/03/02 02:04:22;;;;;;;45.65;22.27;;;;;;;-3.48;100.00;90991.09;5011193;28;20499;-69
2022/03/02 02:06:47;;;;;;;27.52;15.68;;;;;;;-3.73;100.00;90983.50;5011187;28;20053;-69
2022/03/02 02:09:13;;;;;;;51.05;25.67;;;;;;;-3.84;100.00;90998.03;5011087;28;20061;-69
2022/03/02 02:11:39;;;;;;;48.28;23.83;;;;;;;-3.94;100.00;90993.38;5011141;28;20076;-69
2022/03/02 02:14:04;;;;;;;47.90;23.30;;;;;;;-3.94;100.00;90982.97;5011108;28;20045;-68
2022/03/02 02:16:30;;;;;;;45.53;22.88;;;;;;;-3.92;100.00;90986.16;5009598;28;20022;-70
2022/03/02 02:18:56;;;;;;;40.33;21.23;;;;;;;-3.94;100.00;90988.19;5009399;28;20025;-69
2022/03/02 02:21:22;;;;;;;29.10;17.63;;;;;;;-3.87;100.00;90982.88;5010603;28;20491;-70
2022/03/02 02:23:48;;;;;;;31.50;17.33;;;;;;;-3.76;100.00;90978.75;5010932;28;20046;-69
2022/03/02 02:26:14;;;;;;;31.98;17.63;;;;;;;-3.63;100.00;90986.31;5011004;28;20558;-70
2022/03/02 02:28:40;;;;;;;25.80;14.65;;;;;;;-3.43;100.00;90996.44;5010941;28;20115;-69
2022/03/02 02:31:05;;;;;;;27.33;15.48;;;;;;;-3.36;100.00;90989.31;5010858;28;20064;-69
2022/03/02 02:33:31;;;;;;;28.77;15.30;;;;;;;-3.27;100.00;90982.78;5010972;28;20523;-69
2022/03/02 02:35:57;;;;;;;28.48;15.93;;;;;;;-3.24;100.00;90987.53;5010954;28;20117;-69
2022/03/02 02:38:23;;;;;;;28.88;15.27;;;;;;;-3.13;100.00;90983.38;5010703;28;20053;-69
2022/03/02 02:40:50;;;;;;;26.58;14.38;;;;;;;-3.17;100.00;90977.81;5010932;28;20822;-69
2022/03/02 02:43:17;;;;;;;21.90;12.00;;;;;;;-3.22;100.00;90980.31;5010867;28;20061;-69
2022/03/02 02:45:43;;;;;;;20.83;11.63;;;;;;;-3.29;100.00;90981.44;5011234;28;20045;-69
2022/03/02 02:48:08;;;;;;;19.90;11.18;;;;;;;-3.37;100.00;90977.34;5014453;28;20030;-69
2022/03/02 02:50:34;;;;;;;19.83;11.55;;;;;;;-3.36;100.00;90989.31;5014741;28;20076;-69
2022/03/02 02:53:06;;;;;;;19.63;11.15;;;;;;;-3.49;100.00;90990.31;5014412;28;20061;-69
2022/03/02 02:55:33;;;;;;;20.17;10.63;;;;;;;-3.55;100.00;90988.63;5014644;28;20045;-69
2022/03/02 02:57:59;;;;;;;23.45;11.43;;;;;;;-3.54;100.00;90990.19;5014177;28;20108;-69
2022/03/02 03:00:27;;;;;;;18.98;9.88;;;;;;;-3.50;100.00;90993.13;5014319;28;20064;-69
2022/03/02 03:02:54;;;;;;;17.05;8.85;;;;;;;-3.50;100.00;90988.72;5014465;28;20042;-69
2022/03/02 03:05:22;;;;;;;12.75;7.95;;;;;;;-3.53;100.00;90983.97;4996609;28;20467;-70
2022/03/02 03:07:48;;;;;;;13.77;8.05;;;;;;;-3.48;100.00;90986.69;5014027;28;20038;-69
2022/03/02 03:10:16;;;;;;;12.02;8.65;;;;;;;-3.53;100.00;90983.19;5175484;22;20054;-65
2022/03/02 03:12:44;;;;;;;11.43;7.28;;;;;;;-3.61;100.00;90986.91;5033567;28;20033;-65
2022/03/02 03:15:12;;;;;;;10.30;5.90;;;;;;;-3.64;100.00;90975.13;5033430;28;20431;-65
2022/03/02 03:17:38;;;;;;;10.20;6.05;;;;;;;-3.70;100.00;90975.25;5033340;28;20049;-65
2022/03/02 03:20:07;;;;;;;7.13;4.97;;;;;;;-3.72;100.00;90979.88;5033202;28;20494;-66
2022/03/02 03:22:33;;;;;;;11.45;5.78;;;;;;;-3.77;100.00;90977.94;5033299;28;20114;-66
2022/03/02 03:24:59;;;;;;;7.05;5.07;;;;;;;-3.81;100.00;90974.19;5033285;28;20084;-66
2022/03/02 03:27:24;;;;;;;9.50;5.47;;;;;;;-3.77;100.00;90972.75;5033283;28;20546;-66
2022/03/02 03:29:49;;;;;;;9.80;6.13;;;;;;;-3.96;100.00;90955.59;5033071;28;20029;-66
2022/03/02 03:32:15;;;;;;;9.90;5.65;;;;;;;-3.94;100.00;90971.78;5033159;28;20033;-66
2022/03/02 03:34:41;;;;;;;6.97;4.75;;;;;;;-4.01;100.00;90966.66;5033146;28;20396;-66
2022/03/02 03:37:06;;;;;;;6.97;4.75;;;;;;;-4.06;100.00;90965.75;5033078;28;20367;-65
2022/03/02 03:39:32;;;;;;;9.65;5.95;;;;;;;-4.11;100.00;90963.78;5033017;28;20108;-66
2022/03/02 03:41:57;;;;;;;9.38;5.70;;;;;;;-4.19;100.00;90968.53;5032900;28;20116;-66
2022/03/02 03:44:24;;;;;;;14.48;7.35;;;;;;;-4.25;100.00;90965.00;5032991;28;20069;-66
2022/03/02 03:46:49;;;;;;;10.82;7.03;;;;;;;-4.32;100.00;90969.47;5032843;28;20033;-66
2022/03/02 03:49:15;;;;;;;17.58;9.90;;;;;;;-4.41;100.00;90966.41;5032891;28;20037;-66
2022/03/02 03:51:40;;;;;;;13.70;7.00;;;;;;;-4.46;100.00;90965.44;5032728;28;20029;-66
2022/03/02 03:54:06;;;;;;;9.23;5.38;;;;;;;-4.54;100.00;90966.56;5032704;28;20029;-66
2022/03/02 03:56:32;;;;;;;8.75;5.13;;;;;;;-4.62;100.00;90965.03;5032667;28;20033;-66
2022/03/02 03:59:00;;;;;;;11.35;5.38;;;;;;;-4.63;100.00;90967.84;5031641;28;20029;-66
2022/03/02 04:01:26;;;;;;;16.13;8.60;;;;;;;-4.70;100.00;90962.75;5032575;28;20091;-66
2022/03/02 04:03:52;;;;;;;13.52;6.72;;;;;;;-4.75;100.00;90957.38;5032546;28;20029;-66
2022/03/02 04:06:17;;;;;;;16.98;8.02;;;;;;;-4.84;100.00;90958.69;5032514;28;20028;-66
2022/03/02 04:08:43;;;;;;;12.20;6.85;;;;;;;-4.91;100.00;90956.16;5032537;28;20091;-66
2022/03/02 04:11:09;;;;;;;11.95;7.75;;;;;;;-5.10;100.00;90951.19;5032203;28;20518;-66
2022/03/02 04:13:34;;;;;;;12.52;7.70;;;;;;;-5.24;100.00;90955.69;5031211;28;20037;-64
2022/03/02 04:15:59;;;;;;;13.73;8.00;;;;;;;-5.19;100.00;90966.22;5032116;28;20034;-64
2022/03/02 04:18:25;;;;;;;12.70;6.40;;;;;;;-5.17;100.00;90967.59;5035933;28;20313;-64
2022/03/02 04:20:52;;;;;;;14.80;6.82;;;;;;;-5.25;100.00;90959.28;5052039;28;20117;-64
2022/03/02 04:23:19;;;;;;;10.52;6.03;;;;;;;-5.33;100.00;90962.16;5052178;28;20399;-64
2022/03/02 04:25:44;;;;;;;10.00;6.63;;;;;;;-5.39;100.00;90963.78;5052843;28;20067;-64
2022/03/02 04:28:09;;;;;;;11.18;6.93;;;;;;;-5.61;100.00;90960.00;5051898;28;20107;-66
2022/03/02 04:30:35;;;;;;;14.20;7.60;;;;;;;-5.72;100.00;90971.84;5051407;28;20563;-65
2022/03/02 04:33:00;;;;;;;10.75;6.70;;;;;;;-5.80;100.00;90962.53;5051799;28;20085;-66
2022/03/02 04:35:26;;;;;;;12.85;7.70;;;;;;;-5.81;100.00;90970.53;5051801;28;20084;-65
2022/03/02 04:37:52;;;;;;;12.63;7.38;;;;;;;-6.06;100.00;90973.88;5051781;28;20025;-65
2022/03/02 04:40:18;;;;;;;13.48;7.00;;;;;;;-6.32;100.00;90968.06;5051635;28;20159;-65
2022/03/02 04:42:44;;;;;;;140.07;49.17;;;;;;;-6.40;100.00;90971.69;5051753;28;20509;-65
2022/03/02 04:45:10;;;;;;;27.27;12.85;;;;;;;-6.36;100.00;90976.25;5051684;28;20033;-64
2022/03/02 04:47:36;;;;;;;40.63;19.60;;;;;;;-6.31;100.00;90959.28;5051476;28;20035;-63
2022/03/02 04:50:03;;;;;;;48.80;22.95;;;;;;;-6.31;100.00;90959.28;5051319;28;20418;-65
2022/03/02 04:52:28;;;;;;;62.72;27.30;;;;;;;-6.22;100.00;90963.22;5051409;28;20114;-65
2022/03/02 04:55:06;;;;;;;49.83;21.02;;;;;;;-6.08;100.00;90964.75;5051471;28;20514;-65
2022/03/02 04:57:40;;;;;;;36.92;17.23;;;;;;;-5.94;100.00;90971.44;5051332;28;20040;-65
2022/03/02 05:00:18;;;;;;;44.88;20.67;;;;;;;-5.86;100.00;90968.53;5051316;28;20025;-66
2022/03/02 05:02:44;;;;;;;40.60;19.38;;;;;;;-5.84;100.00;90969.16;5051228;28;20486;-63
2022/03/02 05:05:11;;;;;;;35.40;17.35;;;;;;;-5.73;100.00;90963.28;5051271;28;20039;-65
2022/03/02 05:07:37;;;;;;;27.15;14.27;;;;;;;-5.63;100.00;90965.41;5051194;28;20494;-65
2022/03/02 05:10:04;;;;;;;18.55;10.30;;;;;;;-5.48;100.00;90960.69;5050705;28;20028;-65
2022/03/02 05:12:30;;;;;;;16.63;9.00;;;;;;;-5.46;100.00;90952.72;5051027;28;20115;-65
2022/03/02 05:14:55;;;;;;;20.25;11.25;;;;;;;-5.42;100.00;90956.44;5051114;28;20104;-64
2022/03/02 05:17:21;;;;;;;15.30;8.93;;;;;;;-5.36;100.00;90957.41;5051076;28;20024;-65
2022/03/02 05:19:46;;;;;;;16.45;10.05;;;;;;;-5.28;100.00;90960.50;5050926;28;20409;-65
2022/03/02 05:22:12;;;;;;;13.68;7.95;;;;;;;-5.16;100.00;90966.59;5051023;28;20025;-65
2022/03/02 05:24:37;;;;;;;23.13;13.73;;;;;;;-5.20;100.00;90962.84;5050903;28;20040;-65
2022/03/02 05:27:04;;;;;;;16.23;9.55;;;;;;;-5.04;100.00;90965.91;5050889;28;20021;-65
2022/03/02 05:29:29;;;;;;;18.42;10.38;;;;;;;-4.96;100.00;90957.81;5050623;28;20039;-65
2022/03/02 05:31:55;;;;;;;20.88;11.23;;;;;;;-4.86;100.00;90955.53;5050841;28;20025;-63
2022/03/02 05:34:20;;;;;;;22.25;11.20;;;;;;;-4.72;100.00;90962.16;5050665;28;20029;-63
2022/03/02 05:36:46;;;;;;;28.05;14.43;;;;;;;-4.64;100.00;90954.06;5050726;28;20029;-63
2022/03/02 05:39:12;;;;;;;19.70;10.68;;;;;;;-4.64;100.00;90961.06;5050404;28;20402;-62
2022/03/02 05:41:38;;;;;;;37.15;21.05;;;;;;;-4.53;100.00;90965.53;5050573;28;20095;-62
2022/03/02 05:44:07;;;;;;;22.13;12.02;;;;;;;-4.47;100.00;90969.06;5050519;28;20474;-62
2022/03/02 05:46:36;;;;;;;21.42;12.50;;;;;;;-4.48;100.00;90972.66;5050698;28;20024;-63
2022/03/02 05:49:04;;;;;;;21.92;13.75;;;;;;;-4.44;100.00;90966.03;5050420;28;20025;-63
2022/03/02 05:51:30;;;;;;;16.48;9.20;;;;;;;-4.34;100.00;90967.09;5050405;28;20131;-63
2022/03/02 05:53:56;;;;;;;17.40;9.90;;;;;;;-4.28;100.00;90970.63;5050451;28;20498;-64
2022/03/02 05:56:23;;;;;;;32.42;15.60;;;;;;;-4.43;100.00;90967.59;5050473;28;20184;-63
2022/03/02 05:58:49;;;;;;;27.65;15.13;;;;;;;-4.32;100.00;90974.66;5050414;28;20036;-64
2022/03/02 06:01:14;;;;;;;48.00;21.20;;;;;;;-4.39;100.00;90973.97;5050291;28;20494;-63
2022/03/02 06:03:40;;;;;;;15.77;9.48;;;;;;;-4.23;100.00;90968.16;5050259;28;20029;-64
2022/03/02 06:06:05;;;;;;;15.32;7.57;;;;;;;-4.03;100.00;90973.09;5050296;28;20033;-64
2022/03/02 06:08:31;;;;;;;25.40;11.48;;;;;;;-3.99;100.00;90969.03;5050143;28;20437;-64
2022/03/02 06:10:57;;;;;;;22.30;12.98;;;;;;;-3.86;100.00;90975.88;5032012;28;20053;-64
2022/03/02 06:13:22;;;;;;;22.08;11.20;;;;;;;-3.78;100.00;90980.78;5050047;28;20040;-63
2022/03/02 06:15:48;;;;;;;29.23;13.90;;;;;;;-3.69;100.00;90984.63;5050027;28;20056;-64
2022/03/02 06:18:14;;;;;;;33.42;15.20;;;;;;;-3.54;100.00;90987.59;5050070;28;20160;-63
2022/03/02 06:20:42;;;;;;;37.28;18.88;;;;;;;-3.58;100.00;90981.25;5050386;28;20033;-64
2022/03/02 06:23:07;;;;;;;36.10;17.20;;;;;;;-3.49;100.00;90989.53;5054078;28;20575;-63
2022/03/02 06:25:33;;;;;;;40.80;18.48;;;;;;;-3.14;100.00;90981.78;5054492;28;20115;-64
2022/03/02 06:27:58;;;;;;;34.03;15.93;;;;;;;-2.77;97.68;90982.34;5054017;28;20119;-63
2022/03/02 06:30:24;;;;;;;32.15;14.38;;;;;;;-2.32;93.38;90989.53;5054133;28;20072;-64
2022/03/02 06:32:49;;;;;;;25.13;13.15;;;;;;;-2.19;89.24;90984.88;5054118;28;20033;-63
2022/03/02 06:35:15;;;;;;;17.40;9.15;;;;;;;-0.58;81.84;90981.03;5053937;28;20479;-64
2022/03/02 06:37:40;;;;;;;27.20;13.73;;;;;;;1.01;73.21;90967.63;5054533;28;20029;-64
2022/03/02 06:40:09;;;;;;;15.05;9.73;;;;;;;3.57;61.46;90979.53;5053990;28;20187;-64
2022/03/02 06:42:57;;;;;;;25.38;14.95;;;;;;;6.39;52.75;90973.09;5053888;28;20035;-65
2022/03/02 06:45:50;;;;;;;29.40;17.45;;;;;;;8.32;47.51;90964.16;5053834;28;20052;-64
2022/03/02 06:48:32;;;;;;;30.02;15.80;;;;;;;6.96;46.36;90965.28;5053830;28;20029;-64
2022/03/02 06:51:00;;;;;;;22.25;13.18;;;;;;;9.50;43.03;90961.47;5053735;28;20044;-64
2022/03/02 06:53:35;;;;;;;22.50;13.95;;;;;;;10.77;40.14;90971.59;5053738;28;20491;-65
2022/03/02 06:56:06;;;;;;;19.58;13.00;;;;;;;11.21;39.88;90958.41;5053972;28;20029;-64
2022/03/02 06:58:49;;;;;;;17.80;13.15;;;;;;;10.68;38.89;90951.38;5053581;28;20494;-64
2022/03/02 07:01:21;;;;;;;20.17;14.52;;;;;;;9.11;42.10;90956.75;5053612;28;20482;-65
2022/03/02 07:03:50;;;;;;;21.27;15.13;;;;;;;9.76;40.33;90956.34;5053587;28;20090;-64
2022/03/02 07:06:16;;;;;;;21.67;13.52;;;;;;;9.56;40.90;90949.66;5053586;28;21027;-64
2022/03/02 07:08:45;;;;;;;15.18;10.65;;;;;;;8.91;40.79;90943.94;5053390;28;20033;-64
2022/03/02 07:11:11;;;;;;;20.48;13.93;;;;;;;8.82;42.57;90951.00;5053399;28;20072;-65
2022/03/02 07:13:37;;;;;;;17.13;11.77;;;;;;;8.78;42.42;90950.03;5053375;28;20029;-65
2022/03/02 07:16:03;;;;;;;15.18;9.50;;;;;;;8.82;42.57;90945.69;5053342;28;20130;-65
2022/03/02 07:18:29;;;;;;;11.65;8.90;;;;;;;12.09;37.79;90950.91;5053247;28;20481;-65
2022/03/02 07:20:57;;;;;;;11.70;8.38;;;;;;;11.99;38.28;90946.69;5030822;28;20040;-65
2022/03/02 07:23:28;;;;;;;18.38;13.68;;;;;;;12.55;36.82;90950.16;5033170;28;20025;-65
2022/03/02 07:25:59;;;;;;;249.85;149.60;;;;;;;13.98;36.12;90940.34;5033009;28;20033;-65
2022/03/02 07:28:26;;;;;;;93.20;61.08;;;;;;;15.94;33.48;90943.97;5033000;28;20095;-65
2022/03/02 07:30:53;;;;;;;18.08;15.35;;;;;;;13.89;33.41;90942.31;5032728;28;20030;-65
2022/03/02 07:33:21;;;;;;;16.77;13.40;;;;;;;14.81;34.18;90949.28;5031344;28;20040;-65
2022/03/02 07:35:56;;;;;;;29.75;22.25;;;;;;;13.78;33.77;90938.47;5032118;28;20056;-67
2022/03/02 07:38:21;;;;;;;28.73;21.63;;;;;;;16.38;31.76;90936.72;5032600;28;20017;-66
2022/03/02 07:40:48;;;;;;;26.98;20.73;;;;;;;16.29;31.30;90936.13;5032505;28;20036;-66
2022/03/02 07:43:17;;;;;;;21.10;18.00;;;;;;;17.19;31.02;90936.47;5032551;28;20414;-66
2022/03/02 07:45:43;;;;;;;22.08;16.95;;;;;;;17.59;29.97;90934.34;5032492;28;20068;-68
2022/03/02 07:48:10;;;;;;;21.05;15.77;;;;;;;16.93;30.17;90923.59;5032500;28;20448;-68
2022/03/02 07:50:37;;;;;;;30.23;20.25;;;;;;;16.90;30.09;90927.75;5032192;28;20029;-69
2022/03/02 07:53:03;;;;;;;14.85;12.82;;;;;;;17.40;30.64;90926.22;5032501;28;20025;-68
2022/03/02 07:55:30;;;;;;;20.45;13.32;;;;;;;18.87;29.09;90930.00;5032533;28;20406;-68
2022/03/02 07:57:55;;;;;;;23.70;15.63;;;;;;;19.15;28.45;90925.09;5032371;28;20026;-66
2022/03/02 08:00:22;;;;;;;9.45;7.68;;;;;;;19.39;27.57;90919.28;5032063;28;20106;-66
2022/03/02 08:02:53;;;;;;;7.60;6.80;;;;;;;17.30;30.37;90926.75;5032335;28;20036;-67
2022/03/02 08:05:21;;;;;;;9.82;7.90;;;;;;;18.19;29.27;90918.72;5031953;28;20483;-67
2022/03/02 08:07:49;;;;;;;6.78;6.07;;;;;;;19.79;27.65;90919.91;5032007;28;20526;-67
2022/03/02 08:10:15;;;;;;;6.00;5.40;;;;;;;18.40;29.60;90912.19;5031629;28;20029;-67
2022/03/02 08:12:41;;;;;;;5.55;5.03;;;;;;;18.12;29.95;90917.78;5032134;28;20039;-67
2022/03/02 08:15:07;;;;;;;12.77;10.32;;;;;;;17.51;31.62;90915.69;5031902;28;20108;-67
2022/03/02 08:17:33;;;;;;;11.13;9.15;;;;;;;15.93;32.61;90922.81;5031828;28;20032;-67
2022/03/02 08:19:58;;;;;;;6.32;5.72;;;;;;;15.71;33.08;90918.75;5031273;28;20037;-67
2022/03/02 08:22:24;;;;;;;62.42;42.47;;;;;;;17.35;32.95;90918.41;5031823;28;20036;-65
2022/03/02 08:24:59;;;;;;;13.40;10.20;;;;;;;19.23;31.15;90918.66;5031790;28;20044;-64
2022/03/02 08:27:26;;;;;;;12.95;10.23;;;;;;;18.87;29.94;90908.44;5031724;28;20033;-65
2022/03/02 08:29:56;;;;;;;12.88;11.00;;;;;;;14.97;31.10;90907.31;5031415;28;20347;-65
2022/03/02 08:32:25;;;;;;;5.35;3.90;;;;;;;12.45;35.80;90899.78;5031691;28;20033;-65
2022/03/02 08:34:52;;;;;;;5.82;4.63;;;;;;;12.43;36.70;90894.00;5031177;28;20486;-65
2022/03/02 08:37:18;;;;;;;10.63;6.03;;;;;;;9.33;40.28;90888.88;5031562;28;20067;-65
2022/03/02 08:39:44;;;;;;;10.65;7.95;;;;;;;6.39;43.67;90888.56;5031324;28;20518;-64
2022/03/02 08:42:11;;;;;;;8.52;5.60;;;;;;;6.38;45.99;90886.22;5013201;28;20471;-65
2022/03/02 08:44:37;;;;;;;12.50;6.78;;;;;;;5.68;47.19;90890.13;5013448;28;20021;-65
2022/03/02 08:47:02;;;;;;;8.65;6.60;;;;;;;5.40;47.56;90885.66;5031422;28;20061;-66
2022/03/02 08:49:28;;;;;;;19.75;12.50;;;;;;;5.50;48.70;90869.72;5012881;28;20072;-66
2022/03/02 08:51:54;;;;;;;12.90;10.55;;;;;;;4.39;49.29;90884.53;5031529;28;20036;-65
2022/03/02 08:54:22;;;;;;;6.18;4.80;;;;;;;4.73;49.61;90874.03;5031073;28;20083;-65
2022/03/02 08:56:48;;;;;;;9.30;7.03;;;;;;;4.19;51.40;90870.41;5031183;28;20029;-64
2022/03/02 08:59:18;;;;;;;6.97;5.15;;;;;;;4.68;50.36;90868.81;5030966;28;20028;-64
2022/03/02 09:01:51;;;;;;;7.78;4.70;;;;;;;5.00;49.49;90863.84;5031191;28;20029;-64
2022/03/02 09:04:18;;;;;;;8.32;6.05;;;;;;;4.86;49.94;90868.16;5030808;28;20025;-66
2022/03/02 09:06:45;;;;;;;13.05;7.00;;;;;;;5.11;49.73;90854.78;5031325;28;20034;-66
2022/03/02 09:09:11;;;;;;;10.23;6.93;;;;;;;6.09;47.29;90858.03;5031271;28;20021;-64
2022/03/02 09:11:38;;;;;;;10.70;7.15;;;;;;;6.39;47.58;90858.72;5030965;28;20132;-66
2022/03/02 09:14:04;;;;;;;13.02;9.65;;;;;;;11.03;40.87;90862.53;5031415;28;20029;-66
2022/03/02 09:16:30;;;;;;;7.15;5.80;;;;;;;12.95;36.10;90847.59;5031072;28;20131;-64
2022/03/02 09:18:56;;;;;;;7.25;6.05;;;;;;;13.27;35.78;90849.59;5029841;28;20092;-64
2022/03/02 09:21:22;;;;;;;8.60;6.85;;;;;;;11.74;36.51;90859.53;5030841;28;20029;-64
2022/03/02 09:23:48;;;;;;;16.02;9.07;;;;;;;10.45;38.31;90857.59;5030730;28;20060;-65
2022/03/02 09:26:17;;;;;;;10.40;7.88;;;;;;;9.93;38.20;90865.31;5030764;28;20068;-64
2022/03/02 09:28:46;;;;;;;13.02;8.95;;;;;;;7.55;43.04;90856.13;5030700;28;20455;-64
2022/03/02 09:31:14;;;;;;;9.98;7.32;;;;;;;8.52;41.58;90855.13;5030648;28;20116;-66
2022/03/02 09:33:41;;;;;;;9.18;6.53;;;;;;;6.73;43.91;90846.06;5030358;28;20061;-66
2022/03/02 09:36:09;;;;;;;9.32;6.75;;;;;;;7.51;43.96;90850.63;5030772;28;20108;-65
2022/03/02 09:38:37;;;;;;;11.25;7.22;;;;;;;7.73;43.84;90846.53;5030745;28;20117;-65
2022/03/02 09:41:16;;;;;;;9.20;6.38;;;;;;;7.02;43.78;90839.81;5030442;28;20464;-66
2022/03/02 09:43:46;;;;;;;12.55;7.13;;;;;;;6.61;45.18;90843.84;5030681;28;20025;-66
2022/03/02 09:46:17;;;;;;;12.93;8.20;;;;;;;7.60;44.75;90826.16;5012826;28;20129;-67
2022/03/02 09:48:49;;;;;;;7.40;4.90;;;;;;;8.22;42.64;90831.84;5030086;28;20025;-67
2022/03/02 09:51:22;;;;;;;7.60;5.95;;;;;;;7.49;43.84;90818.38;5030517;28;20043;-65
2022/03/02 09:53:53;;;;;;;5.50;4.63;;;;;;;7.37;43.87;90827.88;5030365;28;20423;-68
2022/03/02 09:56:22;;;;;;;9.05;6.68;;;;;;;7.70;46.02;90823.31;5029562;28;20117;-65
2022/03/02 09:58:51;;;;;;;17.88;11.00;;;;;;;7.91;45.91;90816.56;5030469;28;20026;-67
2022/03/02 10:01:23;;;;;;;13.65;8.95;;;;;;;8.39;44.21;90818.81;5030336;28;20131;-65
2022/03/02 10:03:51;;;;;;;9.07;5.77;;;;;;;8.44;42.58;90817.91;5029912;28;20122;-65
2022/03/02 10:06:18;;;;;;;11.93;8.43;;;;;;;8.69;41.93;90815.50;5030387;28;20021;-66
2022/03/02 10:08:49;;;;;;;12.85;8.95;;;;;;;8.46;44.04;90811.22;5030272;28;20079;-67
2022/03/02 10:11:19;;;;;;;8.25;6.95;;;;;;;8.41;43.38;90814.00;5030096;28;20519;-67
2022/03/02 10:13:45;;;;;;;6.15;4.90;;;;;;;8.92;42.58;90805.69;5030140;28;20036;-66
2022/03/02 10:16:20;;;;;;;10.82;7.65;;;;;;;9.49;41.27;90805.13;5030196;28;20034;-67
2022/03/02 10:18:54;;;;;;;5.25;4.18;;;;;;;10.13;39.93;90792.25;5029803;28;20060;-67
2022/03/02 10:21:32;;;;;;;9.63;6.90;;;;;;;11.24;38.04;90798.03;5030076;28;20045;-66
2022/03/02 10:24:00;;;;;;;14.65;8.60;;;;;;;12.05;36.70;90773.22;5030040;28;20105;-66
2022/03/02 10:26:28;;;;;;;70.18;31.23;;;;;;;11.23;38.19;90781.25;5030351;28;20033;-65
2022/03/02 10:29:03;;;;;;;9.27;7.25;;;;;;;13.34;35.33;90785.72;5029994;28;20029;-66
2022/03/02 10:31:50;;;;;;;6.18;4.63;;;;;;;15.43;33.09;90766.66;5029802;28;20108;-65
2022/03/02 10:34:36;;;;;;;14.85;9.50;;;;;;;17.62;29.86;90764.16;5029563;28;20094;-66
2022/03/02 10:37:28;;;;;;;9.55;6.40;;;;;;;16.66;30.45;90764.03;5030257;28;20030;-66
2022/03/02 10:40:09;;;;;;;10.10;6.13;;;;;;;12.96;33.31;90747.69;5029955;28;20235;-66
2022/03/02 10:42:45;;;;;;;10.77;6.15;;;;;;;9.87;37.64;90763.72;5030233;28;20029;-66
2022/03/02 10:45:28;;;;;;;6.20;4.82;;;;;;;9.20;39.42;90760.44;5032390;28;20091;-66
2022/03/02 10:48:13;;;;;;;5.10;4.40;;;;;;;7.70;42.68;90752.59;5031577;28;20503;-66
2022/03/02 10:50:42;;;;;;;4.88;3.60;;;;;;;6.28;46.63;90758.44;5029989;28;20030;-65
2022/03/02 10:53:13;;;;;;;7.57;5.15;;;;;;;7.17;46.15;90750.44;5030140;28;20108;-66
2022/03/02 10:55:42;;;;;;;7.78;5.72;;;;;;;6.91;46.61;90747.41;5030073;28;20438;-65
2022/03/02 10:58:12;;;;;;;10.93;6.95;;;;;;;7.24;45.92;90749.25;5029989;28;20033;-66
2022/03/02 11:00:37;;;;;;;5.82;3.95;;;;;;;7.16;45.25;90740.13;5029931;28;20025;-66
2022/03/02 11:03:04;;;;;;;5.47;3.60;;;;;;;7.21;45.17;90735.53;5029752;28;20104;-66
2022/03/02 11:05:31;;;;;;;13.40;6.75;;;;;;;7.15;45.43;90739.34;5030185;28;20040;-65
2022/03/02 11:07:58;;;;;;;6.97;4.85;;;;;;;7.49;47.16;90725.75;5032174;28;20032;-65
2022/03/02 11:10:37;;;;;;;4.88;3.92;;;;;;;8.66;42.59;90728.56;5033096;28;20111;-66
2022/03/02 11:13:12;;;;;;;5.32;4.05;;;;;;;8.54;41.03;90716.94;5033376;28;20210;-66
2022/03/02 11:15:48;;;;;;;8.98;8.13;;;;;;;8.53;42.51;90716.16;5033427;28;20107;-65
2022/03/02 11:18:16;;;;;;;6.53;5.32;;;;;;;10.31;40.37;90708.81;5032872;28;20033;-66
2022/03/02 11:20:52;;;;;;;48.92;27.63;;;;;;;10.96;40.59;90712.38;5033214;28;20029;-65